createdAt,value
2019-03-25T00:07:07.020Z,49.80
2019-03-25T00:08:03.170Z,49.68
2019-03-25T00:09:04.767Z,49.57
2019-03-25T00:09:56.623Z,49.78
2019-03-25T00:10:55.618Z,49.88
2019-03-25T00:11:55.607Z,49.68
2019-03-25T00:12:55.611Z,49.55
2019-03-25T00:13:55.583Z,49.55
2019-03-25T00:14:55.575Z,49.86
2019-03-25T00:15:56.569Z,49.42
2019-03-25T00:16:55.562Z,49.84
2019-03-25T00:17:55.561Z,49.84
2019-03-25T00:18:55.558Z,49.73
2019-03-25T00:19:55.523Z,49.30
2019-03-25T00:20:55.516Z,49.30
2019-03-25T00:21:55.497Z,49.71
2019-03-25T00:22:55.506Z,49.40
2019-03-25T00:23:55.494Z,49.30
2019-03-25T00:24:55.484Z,49.51
2019-03-25T00:25:55.457Z,49.30
2019-03-25T00:26:55.449Z,49.73
2019-03-25T00:27:55.432Z,49.73
2019-03-25T00:28:55.423Z,49.63
2019-03-25T00:29:55.438Z,49.52
2019-03-25T05:00:42.448Z,48.38
2019-03-25T05:01:42.430Z,48.79
2019-03-25T05:02:42.443Z,49.10
2019-03-25T05:03:42.408Z,49.31
2019-03-25T05:04:42.417Z,49.52
2019-03-25T05:05:42.437Z,49.31
2019-03-25T05:06:42.379Z,49.82
2019-03-25T05:07:42.371Z,49.60
2019-03-25T05:08:42.382Z,49.39
2019-03-25T05:09:42.346Z,49.18
2019-03-25T05:10:42.332Z,49.29
2019-03-25T05:12:32.579Z,49.49
2019-03-25T05:13:32.557Z,49.37
2019-03-25T05:14:32.564Z,49.39
2019-03-25T05:15:32.539Z,49.39
2019-03-25T05:16:32.531Z,49.49
2019-03-25T05:17:32.528Z,49.37
2019-03-25T05:18:32.508Z,49.39
2019-03-25T05:19:32.514Z,49.47
2019-03-25T05:20:32.483Z,49.29
2019-03-25T05:21:32.494Z,49.37
2019-03-25T05:22:32.462Z,49.47
2019-03-25T05:23:32.458Z,49.26
2019-03-25T05:24:32.470Z,49.26
2019-03-25T05:25:32.460Z,49.57
2019-03-25T05:26:32.424Z,49.68
2019-03-25T05:27:32.416Z,49.47
2019-03-25T05:28:32.403Z,49.47
2019-03-25T05:29:32.396Z,49.26
2019-03-25T05:30:32.438Z,49.99
2019-03-25T05:31:32.498Z,49.57
2019-03-25T05:32:32.358Z,49.47
2019-03-25T05:33:32.385Z,49.34
2019-03-25T05:34:32.342Z,48.85
2019-03-25T05:35:32.329Z,48.85
2019-03-25T05:36:32.321Z,48.44
2019-03-25T05:37:32.314Z,48.62
2019-03-25T05:38:32.297Z,48.41
2019-03-25T05:39:32.325Z,48.83
2019-03-25T05:40:32.274Z,48.85
2019-03-25T05:41:32.262Z,49.05
2019-03-25T05:42:32.264Z,49.05
2019-03-25T05:43:32.269Z,48.85
2019-03-25T05:44:32.238Z,49.05
2019-03-25T05:45:32.222Z,49.05
2019-03-25T05:46:32.211Z,48.85
2019-03-25T05:47:32.246Z,48.72
2019-03-25T05:48:32.197Z,48.65
2019-03-25T05:49:32.199Z,49.04
2019-03-25T05:50:39.202Z,49.16
2019-03-25T05:51:32.155Z,49.16
2019-03-25T05:52:39.186Z,48.93
2019-03-25T05:53:32.147Z,49.24
2019-03-25T05:54:39.181Z,48.54
2019-03-25T05:55:32.124Z,48.41
2019-03-25T05:56:32.106Z,48.83
2019-03-25T05:57:32.094Z,48.13
2019-03-25T05:58:32.082Z,48.54
2019-03-25T05:59:32.071Z,48.31
2019-03-25T06:00:32.082Z,48.95
2019-03-25T06:01:32.058Z,48.93
2019-03-25T06:02:32.048Z,48.85
2019-03-25T06:03:32.036Z,48.21
2019-03-25T06:04:32.061Z,48.52
2019-03-25T06:05:32.014Z,48.31
2019-03-25T06:06:32.018Z,48.10
2019-03-25T06:07:32.008Z,48.52
2019-03-25T06:08:32.006Z,49.04
2019-03-25T06:09:31.971Z,48.10
2019-03-25T06:10:31.962Z,48.62
2019-03-25T06:11:31.948Z,48.39
2019-03-25T06:12:31.952Z,48.10
2019-03-25T06:13:31.939Z,48.29
2019-03-25T06:14:31.921Z,48.29
2019-03-25T06:15:31.911Z,48.19
2019-03-25T06:16:31.897Z,47.98
2019-03-25T06:17:31.906Z,47.98
2019-03-25T06:18:31.872Z,48.08
2019-03-25T06:19:31.874Z,48.08
2019-03-25T06:20:31.855Z,47.98
2019-03-25T06:21:31.849Z,48.39
2019-03-25T06:22:31.841Z,48.08
2019-03-25T06:23:31.843Z,47.77
2019-03-25T06:24:31.814Z,48.29
2019-03-25T06:25:31.844Z,47.98
2019-03-25T06:26:31.790Z,47.44
2019-03-25T06:27:31.790Z,47.85
2019-03-25T06:28:31.790Z,47.65
2019-03-25T06:29:32.118Z,47.96
2019-03-25T06:30:31.749Z,47.11
2019-03-25T06:31:31.744Z,46.78
2019-03-25T06:32:31.729Z,46.78
2019-03-25T06:33:31.738Z,47.09
2019-03-25T06:34:31.711Z,46.47
2019-03-25T06:35:31.697Z,46.88
2019-03-25T06:36:31.684Z,46.04
2019-03-25T06:37:31.687Z,46.76
2019-03-25T06:38:31.663Z,46.88
2019-03-25T06:39:31.667Z,46.26
2019-03-25T06:40:31.642Z,46.58
2019-03-25T06:41:31.632Z,47.09
2019-03-25T06:42:31.622Z,47.50
2019-03-25T06:43:31.626Z,47.40
2019-03-25T06:44:31.615Z,47.50
2019-03-25T06:45:31.588Z,47.52
2019-03-25T06:46:31.579Z,47.52
2019-03-25T06:47:31.568Z,47.73
2019-03-25T06:48:31.557Z,47.63
2019-03-25T06:49:31.555Z,47.91
2019-03-25T06:50:31.548Z,47.40
2019-03-25T06:51:31.521Z,46.78
2019-03-25T06:52:31.508Z,46.66
2019-03-25T06:53:31.502Z,46.26
2019-03-25T06:54:31.491Z,47.40
2019-03-25T06:55:31.516Z,47.60
2019-03-25T06:56:31.469Z,47.52
2019-03-25T06:57:31.453Z,47.42
2019-03-25T06:58:31.446Z,47.42
2019-03-25T06:59:31.459Z,47.60
2019-03-25T07:00:31.440Z,46.55
2019-03-25T07:01:31.411Z,45.97
2019-03-25T07:02:31.398Z,44.08
2019-03-25T07:03:31.408Z,44.47
2019-03-25T07:04:31.379Z,44.56
2019-03-25T07:05:31.382Z,44.35
2019-03-25T07:06:31.362Z,44.86
2019-03-25T07:07:31.349Z,44.96
2019-03-25T07:08:31.336Z,44.68
2019-03-25T07:09:31.342Z,44.47
2019-03-25T07:10:31.324Z,44.78
2019-03-25T07:11:31.316Z,45.17
2019-03-25T07:12:31.297Z,44.57
2019-03-25T07:13:31.292Z,45.09
2019-03-25T07:14:31.280Z,45.19
2019-03-25T07:15:31.280Z,45.29
2019-03-25T07:16:31.274Z,44.80
2019-03-25T07:17:31.238Z,46.03
2019-03-25T07:18:31.231Z,45.93
2019-03-25T07:19:31.222Z,45.83
2019-03-25T07:20:31.214Z,46.15
2019-03-25T07:21:31.215Z,46.47
2019-03-25T07:22:31.202Z,45.75
2019-03-25T07:23:31.172Z,45.75
2019-03-25T07:24:31.160Z,46.59
2019-03-25T07:25:31.163Z,46.67
2019-03-25T07:26:31.150Z,46.48
2019-03-25T07:27:36.709Z,46.48
2019-03-25T07:28:32.135Z,45.97
2019-03-25T07:29:31.114Z,45.76
2019-03-25T07:30:31.094Z,46.67
2019-03-25T07:31:31.091Z,46.39
2019-03-25T07:32:31.097Z,46.28
2019-03-25T07:33:31.114Z,46.39
2019-03-25T07:34:31.054Z,46.80
2019-03-25T07:35:31.040Z,46.51
2019-03-25T07:36:31.034Z,47.44
2019-03-25T07:37:31.023Z,47.15
2019-03-25T07:38:31.045Z,47.25
2019-03-25T07:39:31.029Z,47.05
2019-03-25T07:40:31.017Z,47.44
2019-03-25T07:41:30.977Z,46.92
2019-03-25T07:42:30.968Z,46.51
2019-03-25T07:43:30.957Z,46.41
2019-03-25T07:44:30.970Z,46.39
2019-03-25T07:45:30.939Z,46.80
2019-03-25T07:46:30.930Z,45.87
2019-03-25T07:47:30.926Z,46.26
2019-03-25T07:48:30.901Z,44.88
2019-03-25T07:49:30.894Z,45.40
2019-03-25T07:50:30.902Z,44.76
2019-03-25T07:51:30.871Z,45.37
2019-03-25T07:52:30.858Z,44.96
2019-03-25T07:53:30.854Z,44.35
2019-03-25T07:54:30.856Z,45.58
2019-03-25T07:55:30.842Z,45.78
2019-03-25T07:56:30.837Z,45.27
2019-03-25T07:57:30.808Z,44.88
2019-03-25T07:58:30.901Z,45.17
2019-03-25T07:59:30.795Z,45.27
2019-03-25T08:00:30.830Z,45.78
2019-03-25T08:01:30.786Z,45.17
2019-03-25T08:02:30.757Z,45.45
2019-03-25T08:03:30.754Z,44.51
2019-03-25T08:04:30.730Z,44.39
2019-03-25T08:05:30.744Z,44.17
2019-03-25T08:06:30.740Z,43.32
2019-03-25T08:07:30.703Z,44.37
2019-03-25T08:08:30.705Z,44.78
2019-03-25T08:09:30.700Z,44.78
2019-03-25T08:10:38.231Z,44.57
2019-03-25T08:32:18.661Z,43.73
2019-03-25T08:42:33.963Z,45.45
2019-03-25T08:45:14.513Z,46.09
2019-03-25T08:46:13.260Z,45.70
2019-03-25T08:48:37.177Z,46.65
2019-03-25T08:56:48.119Z,46.28
2019-03-25T08:59:28.374Z,46.26
2019-03-25T09:21:37.188Z,43.32
2019-03-25T09:24:37.275Z,41.63
2019-03-25T09:25:38.277Z,41.38
2019-03-25T09:26:37.199Z,41.89
2019-03-25T09:27:37.116Z,41.69
2019-03-25T09:28:37.132Z,42.24
2019-03-25T10:24:13.504Z,42.46
2019-03-25T10:45:17.947Z,48.18
2019-03-25T10:47:43.698Z,47.44
2019-03-25T10:48:35.212Z,46.06
2019-03-25T10:53:45.576Z,43.90
2019-03-25T10:58:50.709Z,43.63
2019-03-25T10:59:57.201Z,42.77
2019-03-25T11:07:54.947Z,42.38
2019-03-25T11:14:56.803Z,39.10
2019-03-25T11:20:13.586Z,42.65
2019-03-25T11:26:09.884Z,46.75
2019-03-25T11:28:22.986Z,46.19
2019-03-25T11:32:39.799Z,44.49
2019-03-25T11:41:58.889Z,43.02
2019-03-25T11:42:51.483Z,44.35
2019-03-25T11:58:41.583Z,42.36
2019-03-25T12:29:15.197Z,39.60
2019-03-25T12:30:15.173Z,39.29
2019-03-25T12:31:15.171Z,40.27
2019-03-25T12:32:15.153Z,39.66
2019-03-25T12:33:15.166Z,40.27
2019-03-25T12:34:15.213Z,40.69
2019-03-25T12:35:15.124Z,40.43
2019-03-25T12:36:15.111Z,41.46
2019-03-25T12:37:15.098Z,42.13
2019-03-25T12:38:15.108Z,43.38
2019-03-25T12:39:15.100Z,43.93
2019-03-25T12:40:15.087Z,45.00
2019-03-25T12:41:15.055Z,45.95
2019-03-25T12:42:15.042Z,46.33
2019-03-25T12:43:15.035Z,46.86
2019-03-25T12:44:15.068Z,48.02
2019-03-25T12:45:15.018Z,47.76
2019-03-25T12:46:15.007Z,48.60
2019-03-25T12:47:14.997Z,48.73
2019-03-25T12:48:14.982Z,48.75
2019-03-25T12:49:14.971Z,48.55
2019-03-25T12:50:14.984Z,48.03
2019-03-25T12:51:14.996Z,47.83
2019-03-25T12:52:14.938Z,47.27
2019-03-25T12:53:14.927Z,46.11
2019-03-25T12:54:14.923Z,45.04
2019-03-25T12:55:14.927Z,44.63
2019-03-25T12:56:14.896Z,44.32
2019-03-25T12:57:14.885Z,44.12
2019-03-25T12:58:14.877Z,44.53
2019-03-25T12:59:14.865Z,45.14
2019-03-25T13:00:14.879Z,44.73
2019-03-25T13:01:14.869Z,45.14
2019-03-25T13:02:14.834Z,45.25
2019-03-25T13:03:14.819Z,45.04
2019-03-25T13:04:14.809Z,44.45
2019-03-25T13:05:14.841Z,45.04
2019-03-25T13:06:14.793Z,44.20
2019-03-25T13:07:14.783Z,44.63
2019-03-25T13:08:14.786Z,44.73
2019-03-25T13:09:14.780Z,45.35
2019-03-25T13:10:14.743Z,45.32
2019-03-25T13:11:14.738Z,43.98
2019-03-25T13:12:14.725Z,44.28
2019-03-25T13:13:14.727Z,43.98
2019-03-25T13:14:14.703Z,44.57
2019-03-25T13:15:14.722Z,44.26
2019-03-25T13:16:14.681Z,44.65
2019-03-25T13:17:14.670Z,43.53
2019-03-25T13:18:14.664Z,43.71
2019-03-25T13:19:14.654Z,43.73
2019-03-25T13:20:14.731Z,44.43
2019-03-25T13:21:14.632Z,44.12
2019-03-25T13:22:14.614Z,42.88
2019-03-25T13:23:14.605Z,43.08
2019-03-25T13:24:14.624Z,42.41
2019-03-25T13:25:14.613Z,42.19
2019-03-25T13:26:14.576Z,41.84
2019-03-25T13:27:14.575Z,41.24
2019-03-25T13:28:14.562Z,41.84
2019-03-25T13:29:14.545Z,42.68
2019-03-25T13:30:14.532Z,42.57
2019-03-25T13:31:14.547Z,42.39
2019-03-25T13:32:14.508Z,42.69
2019-03-25T13:33:14.498Z,42.51
2019-03-25T13:34:14.490Z,43.32
2019-03-25T13:35:14.475Z,42.41
2019-03-25T13:36:14.510Z,43.04
2019-03-25T13:37:14.463Z,43.04
2019-03-25T13:38:14.445Z,44.28
2019-03-25T13:39:14.439Z,43.79
2019-03-25T13:40:14.452Z,44.12
2019-03-25T13:41:14.428Z,44.22
2019-03-25T13:42:14.398Z,44.12
2019-03-25T13:43:14.400Z,44.96
2019-03-25T13:44:14.397Z,44.04
2019-03-25T13:45:14.378Z,44.65
2019-03-25T13:46:14.367Z,44.75
2019-03-25T13:47:14.350Z,45.18
2019-03-25T13:48:14.334Z,44.78
2019-03-25T13:49:14.326Z,45.31
2019-03-25T13:50:14.342Z,45.84
2019-03-25T13:51:14.346Z,46.06
2019-03-25T13:52:14.316Z,47.33
2019-03-25T13:53:14.277Z,47.35
2019-03-25T13:54:14.266Z,47.89
2019-03-25T13:55:14.272Z,48.09
2019-03-25T13:56:14.283Z,48.11
2019-03-25T13:57:14.237Z,48.11
2019-03-25T13:58:14.245Z,47.93
2019-03-25T13:59:14.211Z,47.83
2019-03-25T14:00:14.205Z,47.96
2019-03-25T14:01:14.200Z,48.77
2019-03-25T14:02:14.187Z,48.39
2019-03-25T14:03:14.197Z,49.23
2019-03-25T14:04:14.166Z,49.13
2019-03-25T14:05:14.162Z,49.35
2019-03-25T14:06:14.140Z,48.33
2019-03-25T14:07:14.126Z,48.43
2019-03-25T14:08:14.119Z,48.43
2019-03-25T14:09:14.136Z,48.43
2019-03-25T14:10:14.100Z,48.86
2019-03-25T14:11:14.097Z,48.02
2019-03-25T14:12:14.080Z,47.89
2019-03-25T14:13:14.065Z,47.71
2019-03-25T14:14:14.058Z,47.89
2019-03-25T14:15:14.060Z,48.10
2019-03-25T14:16:14.039Z,47.59
2019-03-25T14:17:14.023Z,47.79
2019-03-25T14:18:14.010Z,47.89
2019-03-25T14:19:14.014Z,47.18
2019-03-25T14:20:14.002Z,47.49
2019-03-25T14:21:13.982Z,47.34
2019-03-25T14:22:13.982Z,46.50
2019-03-25T14:23:13.968Z,45.89
2019-03-25T14:24:13.973Z,45.86
2019-03-25T14:25:13.940Z,45.31
2019-03-25T14:26:13.935Z,44.98
2019-03-25T14:27:13.915Z,45.18
2019-03-25T14:28:13.918Z,45.08
2019-03-25T14:29:13.898Z,44.59
2019-03-25T14:30:15.009Z,45.53
2019-03-25T14:31:13.897Z,46.04
2019-03-25T14:32:13.870Z,46.37
2019-03-25T14:33:13.856Z,46.04
2019-03-25T14:34:14.636Z,45.53
2019-03-25T14:35:13.851Z,45.92
2019-03-25T14:36:13.825Z,44.85
2019-03-25T14:37:13.828Z,45.06
2019-03-25T14:38:13.795Z,45.39
2019-03-25T14:39:13.785Z,45.72
2019-03-25T14:40:13.775Z,46.45
2019-03-25T14:41:13.792Z,46.58
2019-03-25T14:42:13.755Z,46.78
2019-03-25T14:43:13.762Z,46.27
2019-03-25T14:44:13.749Z,45.92
2019-03-25T14:45:13.724Z,45.67
2019-03-25T14:46:13.740Z,44.32
2019-03-25T14:47:13.705Z,44.51
2019-03-25T14:48:13.696Z,44.41
2019-03-25T14:49:13.680Z,44.59
2019-03-25T14:50:13.671Z,44.38
2019-03-25T14:51:13.679Z,44.38
2019-03-25T14:52:13.654Z,44.28
2019-03-25T14:53:13.675Z,44.31
2019-03-25T14:54:13.648Z,44.65
2019-03-25T14:55:13.617Z,46.00
2019-03-25T14:56:13.610Z,46.53
2019-03-25T14:57:13.611Z,46.44
2019-03-25T14:58:13.582Z,46.44
2019-03-25T14:59:13.573Z,45.78
2019-03-25T15:00:13.567Z,45.78
2019-03-25T15:01:13.558Z,45.37
2019-03-25T15:02:13.550Z,45.55
2019-03-25T15:03:13.555Z,45.00
2019-03-25T15:04:13.515Z,44.28
2019-03-25T15:05:13.512Z,44.46
2019-03-25T15:06:13.502Z,44.24
2019-03-25T15:07:13.510Z,44.02
2019-03-25T15:08:13.518Z,43.91
2019-03-25T15:09:13.471Z,44.02
2019-03-25T15:10:13.453Z,43.81
2019-03-25T15:11:13.446Z,44.45
2019-03-25T15:12:13.440Z,44.04
2019-03-25T15:13:13.450Z,44.79
2019-03-25T15:14:13.433Z,45.22
2019-03-25T15:15:13.400Z,46.06
2019-03-25T15:16:13.397Z,45.32
2019-03-25T15:17:13.379Z,44.98
2019-03-25T15:18:15.873Z,44.43
2019-03-25T15:19:13.373Z,44.32
2019-03-25T15:20:13.348Z,43.90
2019-03-25T15:21:13.340Z,43.37
2019-03-25T15:22:13.322Z,43.06
2019-03-25T15:23:13.315Z,43.90
2019-03-25T15:24:13.342Z,43.79
2019-03-25T15:25:13.293Z,43.61
2019-03-25T15:26:13.282Z,43.61
2019-03-25T15:27:13.295Z,44.45
2019-03-25T15:28:13.261Z,44.98
2019-03-25T15:29:13.251Z,45.72
2019-03-25T15:30:13.237Z,45.84
2019-03-25T15:31:13.229Z,46.16
2019-03-25T15:32:13.213Z,46.70
2019-03-25T15:33:13.228Z,47.23
2019-03-25T15:34:13.198Z,47.05
2019-03-25T15:35:13.199Z,47.25
2019-03-25T15:36:13.178Z,47.78
2019-03-25T15:37:13.165Z,47.81
2019-03-25T15:38:13.170Z,48.03
2019-03-25T15:39:13.141Z,47.93
2019-03-25T15:40:13.200Z,48.55
2019-03-25T15:41:13.117Z,48.47
2019-03-25T15:42:13.119Z,48.36
2019-03-25T15:43:13.095Z,49.10
2019-03-25T15:44:13.100Z,49.13
2019-03-25T15:45:13.097Z,49.33
2019-03-25T15:46:13.068Z,49.26
2019-03-25T15:47:13.093Z,49.26
2019-03-25T15:48:13.051Z,49.05
2019-03-25T15:49:13.061Z,49.38
2019-03-25T15:50:13.025Z,49.38
2019-03-25T15:51:13.016Z,49.07
2019-03-25T15:52:13.002Z,49.17
2019-03-25T15:53:12.988Z,49.09
2019-03-25T15:54:12.976Z,48.97
2019-03-25T15:55:12.990Z,48.66
2019-03-25T15:56:12.953Z,47.92
2019-03-25T15:57:12.951Z,48.10
2019-03-25T15:58:12.951Z,47.89
2019-03-25T15:59:12.935Z,48.02
2019-03-25T16:00:12.944Z,47.92
2019-03-25T16:01:12.900Z,48.35
2019-03-25T16:02:12.893Z,49.07
2019-03-25T16:03:12.879Z,48.89
2019-03-25T16:04:12.879Z,49.30
2019-03-25T16:05:12.886Z,49.01
2019-03-25T16:06:12.849Z,49.01
2019-03-25T16:07:12.838Z,49.22
2019-03-25T16:08:12.825Z,49.63
2019-03-25T16:09:12.817Z,49.55
2019-03-25T16:10:12.820Z,50.06
2019-03-25T16:11:12.821Z,49.96
2019-03-25T16:12:12.787Z,50.29
2019-03-25T16:13:20.385Z,50.48
2019-03-25T16:14:20.299Z,49.44
2019-03-25T16:15:20.284Z,49.04
2019-03-25T16:16:20.299Z,49.55
2019-03-25T16:17:20.266Z,49.14
2019-03-25T16:18:19.781Z,48.50
2019-03-25T16:19:12.710Z,48.47
2019-03-25T16:20:12.700Z,48.14
2019-03-25T16:21:12.688Z,48.04
2019-03-25T16:22:12.695Z,47.84
2019-03-25T16:23:12.665Z,47.81
2019-03-25T16:24:12.653Z,47.92
2019-03-25T16:25:12.673Z,47.61
2019-03-25T16:26:12.639Z,48.13
2019-03-25T16:27:12.624Z,48.66
2019-03-25T16:28:12.640Z,48.76
2019-03-25T16:29:12.611Z,48.86
2019-03-25T16:30:12.613Z,49.17
2019-03-25T16:31:12.581Z,49.19
2019-03-25T16:32:12.575Z,49.19
2019-03-25T16:33:12.559Z,48.99
2019-03-25T16:34:12.589Z,49.19
2019-03-25T16:35:12.569Z,49.51
2019-03-25T16:36:12.554Z,50.35
2019-03-25T16:37:12.532Z,50.45
2019-03-25T16:38:12.511Z,49.94
2019-03-25T16:39:12.496Z,50.35
2019-03-25T16:40:12.507Z,49.43
2019-03-25T16:41:12.473Z,49.43
2019-03-25T16:42:12.468Z,49.86
2019-03-25T16:43:12.462Z,50.35
2019-03-25T16:44:12.455Z,50.24
2019-03-25T16:45:12.428Z,49.73
2019-03-25T16:46:12.434Z,49.76
2019-03-25T16:47:12.421Z,49.65
2019-03-25T16:48:12.422Z,50.04
2019-03-25T16:49:12.396Z,49.84
2019-03-25T16:50:12.377Z,49.96
2019-03-25T16:51:12.365Z,49.55
2019-03-25T16:52:12.382Z,50.06
2019-03-25T16:53:12.358Z,49.86
2019-03-25T16:54:12.349Z,49.98
2019-03-25T16:55:12.322Z,50.37
2019-03-25T16:56:12.322Z,50.37
2019-03-25T16:57:12.309Z,50.37
2019-03-25T16:58:12.299Z,50.37
2019-03-25T16:59:12.306Z,50.40
2019-03-25T17:00:12.272Z,49.88
2019-03-25T17:01:12.262Z,50.37
2019-03-25T17:02:12.250Z,49.86
2019-03-25T17:03:12.241Z,50.40
2019-03-25T17:04:12.251Z,49.78
2019-03-25T17:05:12.241Z,50.68
2019-03-25T17:06:12.206Z,49.86
2019-03-25T17:07:12.196Z,50.09
2019-03-25T17:08:12.181Z,49.86
2019-03-25T17:09:12.179Z,49.86
2019-03-25T17:10:12.188Z,49.98
2019-03-25T17:11:12.249Z,49.65
2019-03-25T17:12:12.146Z,49.68
2019-03-25T17:13:12.135Z,50.27
2019-03-25T17:14:12.121Z,51.12
2019-03-25T17:15:12.111Z,51.32
2019-03-25T17:16:12.117Z,51.12
2019-03-25T17:17:12.085Z,50.70
2019-03-25T17:18:12.080Z,50.81
2019-03-25T17:19:12.067Z,50.81
2019-03-25T17:20:12.056Z,50.81
2019-03-25T17:21:12.064Z,51.12
2019-03-25T17:22:12.068Z,50.81
2019-03-25T17:23:12.025Z,50.81
2019-03-25T17:24:14.099Z,50.93
2019-03-25T17:25:12.011Z,50.42
2019-03-25T17:26:12.011Z,51.01
2019-03-25T17:27:11.995Z,50.40
2019-03-25T17:28:11.967Z,51.14
2019-03-25T17:29:11.963Z,51.04
2019-03-25T17:30:11.956Z,51.04
2019-03-25T17:31:20.569Z,50.32
2019-03-25T17:32:12.957Z,50.52
2019-03-25T17:33:11.921Z,50.73
2019-03-25T17:34:11.944Z,50.42
2019-03-25T17:35:11.904Z,50.32
2019-03-25T17:36:11.900Z,50.11
2019-03-25T17:37:11.891Z,51.04
2019-03-25T17:38:11.912Z,50.73
2019-03-25T17:39:11.854Z,50.62
2019-03-25T17:40:11.883Z,51.16
2019-03-25T17:41:11.836Z,50.85
2019-03-25T17:42:11.824Z,50.75
2019-03-25T17:43:11.836Z,50.75
2019-03-25T17:44:11.801Z,51.16
2019-03-25T17:45:11.791Z,51.16
2019-03-25T17:46:11.783Z,50.75
2019-03-25T17:47:11.801Z,50.34
2019-03-25T17:48:11.784Z,50.75
2019-03-25T17:49:11.749Z,50.96
2019-03-25T17:50:11.755Z,50.96
2019-03-25T17:51:11.734Z,51.06
2019-03-25T17:52:11.711Z,50.65
2019-03-25T17:53:11.712Z,50.75
2019-03-25T17:54:11.707Z,50.44
2019-03-25T17:55:11.685Z,51.16
2019-03-25T17:56:11.692Z,50.13
2019-03-25T17:57:11.666Z,50.96
2019-03-25T17:58:11.650Z,50.24
2019-03-25T17:59:11.639Z,50.96
2019-03-25T18:00:11.640Z,50.75
2019-03-25T18:01:11.640Z,51.06
2019-03-25T18:02:11.621Z,51.06
2019-03-25T18:03:11.608Z,51.16
2019-03-25T18:04:11.583Z,50.67
2019-03-25T18:05:11.671Z,50.65
2019-03-25T18:06:11.575Z,51.16
2019-03-25T18:07:11.559Z,50.67
2019-03-25T18:08:11.546Z,51.16
2019-03-25T18:09:11.539Z,51.16
2019-03-25T18:10:11.524Z,51.16
2019-03-25T18:11:11.558Z,51.16
2019-03-25T18:12:11.501Z,50.65
2019-03-25T18:13:21.771Z,50.85
2019-03-25T18:14:12.481Z,50.75
2019-03-25T18:15:11.477Z,50.88
2019-03-25T18:16:11.464Z,50.98
2019-03-25T18:17:11.462Z,50.88
2019-03-25T18:18:11.439Z,50.88
2019-03-25T18:19:11.428Z,50.78
2019-03-25T18:20:18.547Z,50.88
2019-03-25T18:21:12.404Z,51.60
2019-03-25T18:22:11.415Z,51.50
2019-03-25T18:23:11.384Z,51.47
2019-03-25T18:24:11.385Z,51.50
2019-03-25T18:25:11.366Z,51.68
2019-03-25T18:26:11.358Z,51.29
2019-03-25T18:27:11.368Z,51.09
2019-03-25T18:28:11.333Z,50.88
2019-03-25T18:29:11.336Z,51.50
2019-03-25T18:30:11.314Z,51.29
2019-03-25T18:31:11.298Z,50.78
2019-03-25T18:32:11.314Z,51.29
2019-03-25T18:33:11.287Z,51.29
2019-03-25T18:34:11.308Z,50.88
2019-03-25T18:35:11.254Z,51.50
2019-03-25T18:36:11.249Z,51.52
2019-03-25T18:37:11.263Z,51.31
2019-03-25T18:38:11.232Z,51.62
2019-03-25T18:39:11.227Z,51.42
2019-03-25T18:40:11.212Z,51.10
2019-03-25T18:41:11.198Z,51.10
2019-03-25T18:42:11.185Z,51.42
2019-03-25T18:43:11.226Z,50.82
2019-03-25T18:44:11.160Z,50.80
2019-03-25T18:45:11.164Z,51.13
2019-03-25T18:46:11.146Z,51.13
2019-03-25T18:47:11.142Z,51.34
2019-03-25T18:48:11.142Z,51.44
2019-03-25T18:49:11.111Z,51.13
2019-03-25T18:50:11.107Z,51.44
2019-03-25T18:51:11.091Z,51.44
2019-03-25T18:52:11.081Z,51.23
2019-03-25T18:53:11.076Z,51.34
2019-03-25T18:54:11.069Z,51.13
2019-03-25T18:55:11.042Z,50.92
2019-03-25T18:56:11.036Z,51.15
2019-03-25T18:57:11.030Z,51.23
2019-03-25T18:58:11.054Z,51.26
2019-03-25T18:59:11.021Z,51.57
2019-03-25T19:00:11.003Z,51.26
2019-03-25T19:01:10.983Z,50.95
2019-03-25T19:02:10.988Z,51.05
2019-03-25T19:03:10.981Z,50.95
2019-03-25T19:04:10.949Z,51.03
2019-03-25T19:05:10.945Z,51.15
2019-03-25T19:06:10.966Z,51.26
2019-03-25T19:07:10.938Z,51.65
2019-03-25T19:08:10.948Z,51.44
2019-03-25T19:09:10.902Z,51.34
2019-03-25T19:10:10.907Z,51.34
2019-03-25T19:11:10.883Z,51.65
2019-03-25T19:12:10.872Z,51.44
2019-03-25T19:13:10.859Z,51.34
2019-03-25T19:14:10.860Z,51.34
2019-03-25T19:15:10.829Z,51.44
2019-03-25T19:16:10.847Z,51.44
2019-03-25T19:17:10.820Z,51.54
2019-03-25T19:18:10.821Z,51.23
2019-03-25T19:19:10.822Z,51.23
2019-03-25T19:20:10.798Z,51.23
2019-03-25T19:21:10.794Z,50.92
2019-03-25T19:22:12.745Z,51.54
2019-03-25T19:23:10.753Z,51.52
2019-03-25T19:24:10.759Z,50.90
2019-03-25T19:25:10.758Z,51.54
2019-03-25T19:26:10.744Z,50.72
2019-03-25T19:27:10.703Z,50.90
2019-03-25T19:28:10.718Z,50.92
2019-03-25T19:29:10.695Z,50.90
2019-03-25T19:30:10.700Z,50.82
2019-03-25T19:31:10.709Z,50.80
2019-03-25T19:32:10.653Z,50.72
2019-03-25T19:33:10.648Z,50.92
2019-03-25T19:34:10.631Z,50.82
2019-03-25T19:35:10.620Z,50.90
2019-03-25T19:36:10.623Z,51.42
2019-03-25T19:37:10.648Z,50.90
2019-03-25T19:38:10.638Z,51.21
2019-03-25T19:39:10.585Z,50.90
2019-03-25T19:40:10.575Z,50.92
2019-03-25T19:41:10.573Z,50.90
2019-03-25T19:42:10.583Z,50.80
2019-03-25T19:43:10.584Z,50.90
2019-03-25T19:44:10.528Z,50.80
2019-03-25T19:45:10.513Z,50.92
2019-03-25T19:46:10.503Z,50.82
2019-03-25T19:47:10.533Z,51.54
2019-03-25T19:48:10.494Z,51.54
2019-03-25T19:49:10.559Z,50.92
2019-03-25T19:50:10.473Z,50.80
2019-03-25T19:51:10.452Z,50.90
2019-03-25T19:52:10.445Z,50.90
2019-03-25T19:53:18.955Z,50.80
2019-03-25T19:54:11.444Z,50.80
2019-03-25T19:55:10.419Z,51.21
2019-03-25T19:56:10.420Z,51.21
2019-03-25T19:57:10.428Z,50.28
2019-03-25T19:58:10.375Z,50.31
2019-03-25T19:59:10.387Z,51.21
2019-03-25T20:00:10.406Z,51.10
2019-03-25T20:01:10.381Z,50.80
2019-03-25T20:02:18.897Z,50.59
2019-03-25T20:03:11.337Z,51.00
2019-03-25T20:04:10.316Z,50.80
2019-03-25T20:05:10.303Z,49.98
2019-03-25T20:06:10.359Z,51.00
2019-03-25T20:07:10.310Z,50.80
2019-03-25T20:08:10.269Z,50.80
2019-03-25T20:09:10.260Z,50.38
2019-03-25T20:18:30.457Z,49.98
2019-03-25T20:21:09.340Z,49.90
2019-03-25T20:26:26.515Z,49.99
2019-03-25T20:27:22.920Z,49.79
2019-03-25T20:31:40.384Z,51.34
2019-03-25T20:38:11.480Z,50.33
2019-03-25T20:47:00.701Z,51.26
2019-03-25T22:22:23.876Z,51.39
2019-03-25T22:23:23.854Z,50.89
2019-03-25T23:09:59.014Z,51.54
2019-03-25T23:10:58.910Z,51.35
2019-03-25T23:11:58.903Z,51.64
2019-03-25T23:12:58.910Z,51.43
2019-03-25T23:13:58.883Z,51.74
2019-03-25T23:14:58.874Z,52.15
2019-03-25T23:15:58.861Z,52.05
2019-03-25T23:16:58.858Z,52.88
2019-03-25T23:17:58.842Z,52.78
2019-03-25T23:18:58.847Z,52.75
2019-03-25T23:19:58.830Z,52.57
2019-03-25T23:20:58.810Z,52.65
2019-03-25T23:21:58.798Z,52.03
2019-03-25T23:22:58.786Z,52.13
2019-03-25T23:23:58.796Z,51.82
2019-03-25T23:24:58.770Z,52.34
2019-03-25T23:25:58.762Z,52.03
2019-03-25T23:26:58.752Z,51.31
2019-03-25T23:27:58.738Z,51.72
2019-03-25T23:28:58.726Z,51.72
2019-03-25T23:29:58.727Z,51.62
2019-03-25T23:30:58.709Z,52.11
2019-03-25T23:31:58.695Z,52.03
2019-03-25T23:32:58.683Z,52.03
2019-03-25T23:33:58.669Z,51.90
2019-03-25T23:34:58.680Z,51.90
2019-03-25T23:35:58.645Z,51.70
2019-03-25T23:36:58.652Z,51.28
2019-03-25T23:37:58.633Z,51.59
2019-03-25T23:38:58.622Z,51.59
2019-03-25T23:39:58.612Z,51.59
2019-03-25T23:40:58.616Z,51.70
2019-03-25T23:41:58.583Z,51.59
2019-03-25T23:42:58.579Z,51.49
2019-03-25T23:43:58.571Z,51.28
2019-03-25T23:44:58.552Z,51.28
2019-03-25T23:45:58.547Z,51.28
2019-03-25T23:46:58.564Z,51.28
2019-03-25T23:47:58.522Z,51.28
2019-03-25T23:48:58.513Z,51.49
2019-03-25T23:49:58.509Z,51.28
2019-03-25T23:50:58.492Z,51.28
2019-03-25T23:51:58.498Z,51.51
2019-03-25T23:52:58.470Z,51.28
2019-03-25T23:53:58.464Z,51.59
2019-03-25T23:54:58.445Z,51.59
2019-03-25T23:55:58.435Z,51.59
2019-03-25T23:56:58.443Z,51.59
2019-03-25T23:57:58.416Z,51.39
2019-03-25T23:58:58.409Z,51.31
2019-03-25T23:59:58.399Z,51.79
